Terminal Aerodrome Forecast
Issued by NWS

Home | Current Version | Previous Version | Text Only | Print | Product List | Glossary On
Versions: 1 2 3 4 5 6 7 8 9 10 11 12 13 14 15 16 17 18 19 20 21 22 23 24 25 26 27 28 29 30 31 32 33 34 35 36 37 38
000
FTUS43 KDMX 102337
TAFMCW
TAF
KMCW 102337Z 1100/1124 10011KT 3SM -SN BR SCT010 OVC040
     FM110300 13011G18KT 2SM -SN SCT008 OVC012
     FM110800 13011KT 1SM -SN OVC007
     FM111300 14012KT 3SM -SN OVC008
     FM111700 19009KT P6SM SCT004 OVC009
     FM112100 30014G18KT P6SM OVC011=

USA.gov is the U.S. government's official web portal to all federal, state and local government web resources and services.